Tabellarische Übersicht vom Samstag, den 28.01.2023

Oder anderes Datum wählen:






max 2,5°C 92,0% -0,3°C 1030,4hPa 2,0°C 21,2km/h (4Bft) 9,8km/h 360° (N) ∑0,0l/m² 25,000klx ∑0,0min
min -2,8°C 68,0% -4,0°C 1027,1hPa -9,0°C 0,0km/h (0Bft) 0,0km/h 1° (N) ∑0,0l/m² 0,000klx ∑0,0min
Ø 0,6°C 78,0% -2,9°C 1028,7hPa -2,0°C 8,4km/h (2Bft) 4,1km/h 96° (O) ∑0,0l/m² 6,000klx ∑0,0min
Zeit Temperatur Luftfeuchte Taupunkt Luftdruck Windchill Windböen Windgeschwindigkeit Windrichtung Regen Helligkeit Regenzeit
21:10 -2,6°C 92,1% -3,6°C 1030,3hPa -2,6°C 4,3km/h (1Bft) 2,2km/h 140° (SO) 0,0l/m² 0,000klx 0,0min
21:05 -2,8°C 92,0% -3,7°C 1030,4hPa -2,8°C 5,8km/h (1Bft) 2,5km/h 126° (SO) 0,0l/m² 0,001klx 0,0min
21:00 -2,8°C 91,5% -3,8°C 1030,4hPa -2,8°C 5,4km/h (1Bft) 3,2km/h 116° (SO) 0,0l/m² 0,001klx 0,0min
20:55 -2,7°C 90,9% -3,8°C 1030,2hPa -2,7°C 5,8km/h (1Bft) 3,6km/h 121° (SO) 0,0l/m² 0,001klx 0,0min
20:50 -2,6°C 90,7% -3,7°C 1030,2hPa -2,6°C 5,0km/h (1Bft) 3,3km/h 123° (SO) 0,0l/m² 0,001klx 0,0min
20:45 -2,5°C 90,7% -3,7°C 1030,2hPa -2,5°C 5,4km/h (1Bft) 3,0km/h 128° (SO) 0,0l/m² 0,001klx 0,0min
20:40 -2,5°C 90,8% -3,7°C 1030,2hPa -2,5°C 6,8km/h (2Bft) 3,6km/h 129° (SO) 0,0l/m² 0,001klx 0,0min
20:35 -2,6°C 91,0% -3,7°C 1030,2hPa -2,6°C 4,3km/h (1Bft) 2,8km/h 123° (SO) 0,0l/m² 0,001klx 0,0min
20:30 -2,5°C 90,6% -3,7°C 1030,1hPa -2,5°C 5,0km/h (1Bft) 3,4km/h 123° (SO) 0,0l/m² 0,001klx 0,0min
20:25 -2,4°C 90,1% -3,6°C 1030,1hPa -2,4°C 4,3km/h (1Bft) 2,5km/h 120° (SO) 0,0l/m² 0,000klx 0,0min
20:20 -2,3°C 90,1% -3,5°C 1030,1hPa -2,3°C 2,9km/h (1Bft) 1,5km/h 116° (SO) 0,0l/m² 0,001klx 0,0min
20:15 -2,4°C 90,6% -3,6°C 1030,1hPa -2,4°C 2,9km/h (1Bft) 1,5km/h 86° (O) 0,0l/m² 0,001klx 0,0min
20:10 -2,4°C 90,8% -3,6°C 1030,1hPa -2,4°C 2,9km/h (1Bft) 1,6km/h 108° (O) 0,0l/m² 0,001klx 0,0min
20:05 -2,4°C 90,8% -3,5°C 1030,1hPa -2,4°C 4,7km/h (1Bft) 3,2km/h 114° (SO) 0,0l/m² 0,001klx 0,0min
20:00 -2,4°C 90,6% -3,5°C 1030,1hPa -2,4°C 4,7km/h (1Bft) 3,2km/h 119° (SO) 0,0l/m² 0,000klx 0,0min
19:55 -2,3°C 90,5% -3,5°C 1030,1hPa -2,3°C 4,3km/h (1Bft) 2,8km/h 118° (SO) 0,0l/m² 0,001klx 0,0min
19:50 -2,3°C 90,1% -3,5°C 1030,1hPa -2,3°C 5,0km/h (1Bft) 3,2km/h 121° (SO) 0,0l/m² 0,001klx 0,0min
19:45 -2,3°C 89,7% -3,6°C 1030,0hPa -2,3°C 3,2km/h (1Bft) 1,7km/h 91° (O) 0,0l/m² 0,001klx 0,0min
19:40 -2,2°C 89,2% -3,6°C 1029,8hPa -2,2°C 3,6km/h (1Bft) 1,9km/h 126° (SO) 0,0l/m² 0,001klx 0,0min
19:35 -2,1°C 88,2% -3,6°C 1029,8hPa -2,1°C 4,0km/h (1Bft) 2,2km/h 155° (SO) 0,0l/m² 0,001klx 0,0min
19:30 -2,0°C 87,9% -3,5°C 1029,9hPa -2,0°C 2,9km/h (1Bft) 1,5km/h 123° (SO) 0,0l/m² 0,001klx 0,0min
19:25 -2,1°C 88,5% -3,6°C 1029,9hPa -2,1°C 3,2km/h (1Bft) 2,3km/h 122° (SO) 0,0l/m² 0,001klx 0,0min
19:20 -2,1°C 88,3% -3,6°C 1029,9hPa -2,1°C 2,9km/h (1Bft) 1,4km/h 108° (O) 0,0l/m² 0,001klx 0,0min
19:15 -2,0°C 87,6% -3,6°C 1029,9hPa -2,0°C 1,8km/h (0Bft) 1,1km/h 115° (SO) 0,0l/m² 0,001klx 0,0min
19:10 -1,8°C 86,3% -3,5°C 1029,9hPa -1,8°C 1,1km/h (0Bft) 1,0km/h 234° (SW) 0,0l/m² 0,001klx 0,0min
19:05 -1,7°C 86,0% -3,5°C 1029,9hPa -1,7°C 0,0km/h (0Bft) 0,0km/h - 0,0l/m² 0,001klx 0,0min
19:00 -1,7°C 86,2% -3,5°C 1029,8hPa -1,7°C 2,5km/h (1Bft) 1,3km/h 56° (NO) 0,0l/m² 0,001klx 0,0min
18:55 -1,7°C 86,4% -3,4°C 1029,6hPa -1,7°C 1,8km/h (0Bft) 1,2km/h 105° (O) 0,0l/m² 0,001klx 0,0min
18:50 -1,7°C 86,0% -3,5°C 1029,6hPa -1,7°C 0,0km/h (0Bft) 0,0km/h - 0,0l/m² 0,001klx 0,0min
18:45 -1,6°C 85,8% -3,4°C 1029,5hPa -1,6°C 0,0km/h (0Bft) 0,0km/h - 0,0l/m² 0,000klx 0,0min
18:40 -1,6°C 85,0% -3,5°C 1029,3hPa -1,6°C 3,2km/h (1Bft) 1,8km/h 117° (SO) 0,0l/m² 0,001klx 0,0min
18:35 -1,7°C 84,6% -3,7°C 1029,3hPa -1,7°C 2,9km/h (1Bft) 1,4km/h 124° (SO) 0,0l/m² 0,001klx 0,0min
18:30 -1,7°C 84,1% -3,7°C 1029,2hPa -1,7°C 1,8km/h (0Bft) 1,1km/h 97° (O) 0,0l/m² 0,001klx 0,0min
18:25 -1,6°C 84,1% -3,7°C 1029,3hPa -1,6°C 3,2km/h (1Bft) 1,6km/h 116° (SO) 0,0l/m² 0,001klx 0,0min
18:20 -1,5°C 83,7% -3,6°C 1029,4hPa -1,5°C 0,0km/h (0Bft) 0,0km/h - 0,0l/m² 0,001klx 0,0min
18:15 -1,4°C 82,6% -3,7°C 1029,3hPa -1,4°C 0,0km/h (0Bft) 0,0km/h - 0,0l/m² 0,001klx 0,0min
18:10 -1,4°C 82,1% -3,8°C 1029,4hPa -1,4°C 0,0km/h (0Bft) 0,0km/h - 0,0l/m² 0,001klx 0,0min
18:05 -1,4°C 82,2% -3,7°C 1029,3hPa -1,4°C 1,1km/h (0Bft) 0,8km/h 23° (NO) 0,0l/m² 0,001klx 0,0min
18:00 -1,2°C 81,8% -3,6°C 1029,4hPa -1,2°C 1,1km/h (0Bft) 1,0km/h 110° (O) 0,0l/m² 0,002klx 0,0min
17:55 -1,1°C 80,2% -3,7°C 1029,5hPa -1,1°C 0,0km/h (0Bft) 0,0km/h - 0,0l/m² 0,003klx 0,0min
17:50 -1,0°C 80,4% -3,6°C 1029,5hPa -1,0°C 1,1km/h (0Bft) 0,9km/h 43° (NO) 0,0l/m² 0,006klx 0,0min
17:45 -0,9°C 79,2% -3,7°C 1029,6hPa -0,9°C 2,9km/h (1Bft) 1,3km/h 357° (N) 0,0l/m² 0,013klx 0,0min
17:40 -0,8°C 79,5% -3,6°C 1029,6hPa -0,8°C 4,3km/h (1Bft) 2,1km/h 10° (N) 0,0l/m² 0,031klx 0,0min
17:35 -0,6°C 78,1% -3,5°C 1029,4hPa -0,6°C 2,5km/h (1Bft) 1,4km/h 17° (N) 0,0l/m² 0,063klx 0,0min
17:30 -0,4°C 77,5% -3,5°C 1029,3hPa -0,4°C 0,0km/h (0Bft) 0,0km/h - 0,0l/m² 0,123klx 0,0min
17:25 -0,5°C 78,6% -3,4°C 1029,3hPa -0,5°C 0,0km/h (0Bft) 0,0km/h - 0,0l/m² 0,212klx 0,0min
17:20 -0,5°C 77,8% -3,5°C 1029,3hPa -0,5°C 2,5km/h (1Bft) 1,3km/h 325° (NW) 0,0l/m² 0,333klx 0,0min
17:15 -0,4°C 76,1% -3,7°C 1029,2hPa -0,4°C 1,1km/h (0Bft) 0,9km/h 330° (NW) 0,0l/m² 0,494klx 0,0min
17:10 -0,3°C 76,8% -3,5°C 1029,2hPa -0,3°C 1,1km/h (0Bft) 0,8km/h 233° (SW) 0,0l/m² 0,679klx 0,0min
17:05 -0,1°C 76,6% -3,3°C 1029,1hPa -0,1°C 1,4km/h (0Bft) 1,0km/h 232° (SW) 0,0l/m² 0,907klx 0,0min
17:00 0,0°C 75,5% -3,8°C 1029,1hPa 0,0°C 1,1km/h (0Bft) 1,1km/h 341° (N) 0,0l/m² 1,243klx 0,0min
16:55 0,1°C 75,2% -3,8°C 1029,0hPa 0,1°C 2,2km/h (1Bft) 1,1km/h 328° (NW) 0,0l/m² 1,601klx 0,0min
16:50 0,3°C 74,1% -3,8°C 1029,0hPa 0,3°C 3,2km/h (1Bft) 1,6km/h 326° (NW) 0,0l/m² 2,038klx 0,0min
16:45 0,3°C 74,6% -3,7°C 1029,0hPa 0,3°C 3,2km/h (1Bft) 1,7km/h 331° (NW) 0,0l/m² 2,508klx 0,0min
16:40 0,5°C 74,4% -3,6°C 1028,9hPa 0,5°C 3,6km/h (1Bft) 1,5km/h 315° (NW) 0,0l/m² 2,999klx 0,0min
16:35 0,7°C 72,7% -3,7°C 1028,8hPa 0,7°C 3,2km/h (1Bft) 1,7km/h 272° (W) 0,0l/m² 3,559klx 0,0min
16:30 0,8°C 72,0% -3,7°C 1028,7hPa 0,8°C 3,6km/h (1Bft) 2,1km/h 202° (S) 0,0l/m² 4,084klx 0,0min
16:25 0,7°C 71,4% -3,8°C 1028,6hPa 0,7°C 5,4km/h (1Bft) 2,7km/h 203° (SW) 0,0l/m² 4,551klx 0,0min
16:20 0,8°C 71,3% -3,8°C 1028,7hPa 0,8°C 4,7km/h (1Bft) 2,0km/h 211° (SW) 0,0l/m² 5,282klx 0,0min
16:15 0,8°C 71,7% -3,7°C 1028,6hPa 0,8°C 4,3km/h (1Bft) 2,0km/h 241° (SW) 0,0l/m² 5,834klx 0,0min
16:10 0,9°C 70,9% -3,8°C 1028,4hPa 0,9°C 4,7km/h (1Bft) 2,3km/h 233° (SW) 0,0l/m² 6,301klx 0,0min
16:05 1,0°C 71,0% -3,6°C 1028,4hPa 1,0°C 5,8km/h (1Bft) 2,9km/h 243° (SW) 0,0l/m² 6,855klx 0,0min
16:00 1,2°C 69,4% -3,8°C 1028,3hPa 1,2°C 4,7km/h (1Bft) 2,4km/h 253° (W) 0,0l/m² 7,465klx 0,0min
15:55 1,3°C 69,3% -3,7°C 1028,2hPa 1,3°C 5,0km/h (1Bft) 2,4km/h 234° (SW) 0,0l/m² 7,959klx 0,0min
15:50 1,4°C 68,8% -3,7°C 1028,3hPa 1,4°C 5,0km/h (1Bft) 2,8km/h 276° (W) 0,0l/m² 8,459klx 0,0min
15:45 1,3°C 69,6% -3,7°C 1028,4hPa 1,3°C 5,0km/h (1Bft) 3,0km/h 195° (S) 0,0l/m² 8,758klx 0,0min
15:40 1,0°C 71,1% -3,7°C 1028,4hPa 1,0°C 5,0km/h (1Bft) 2,6km/h 188° (S) 0,0l/m² 9,300klx 0,0min
15:35 0,7°C 71,3% -3,9°C 1028,6hPa 0,7°C 4,3km/h (1Bft) 2,2km/h 173° (S) 0,0l/m² 9,235klx 0,0min
15:30 0,7°C 71,7% -3,9°C 1028,7hPa 0,7°C 4,3km/h (1Bft) 2,4km/h 196° (S) 0,0l/m² 9,418klx 0,0min
15:25 0,6°C 71,6% -4,0°C 1028,8hPa 0,6°C 3,2km/h (1Bft) 1,7km/h 189° (S) 0,0l/m² 7,988klx 0,0min
15:20 0,6°C 71,4% -4,0°C 1029,0hPa 0,6°C 2,5km/h (1Bft) 1,1km/h 233° (SW) 0,0l/m² 7,576klx 0,0min
15:15 0,6°C 71,4% -4,0°C 1029,0hPa 0,6°C 4,3km/h (1Bft) 2,5km/h 227° (SW) 0,0l/m² 7,863klx 0,0min
15:10 0,5°C 71,6% -4,0°C 1029,0hPa 0,5°C 3,2km/h (1Bft) 1,6km/h 297° (NW) 0,0l/m² 8,461klx 0,0min
15:05 0,6°C 72,9% -3,7°C 1028,9hPa 0,6°C 4,3km/h (1Bft) 2,2km/h 317° (NW) 0,0l/m² 8,019klx 0,0min
15:00 0,6°C 72,8% -3,8°C 1028,9hPa 0,6°C 2,5km/h (1Bft) 1,4km/h 337° (NW) 0,0l/m² 7,983klx 0,0min
14:55 0,7°C 71,5% -3,9°C 1028,8hPa 0,7°C 3,2km/h (1Bft) 1,8km/h 350° (N) 0,0l/m² 7,793klx 0,0min
14:50 0,8°C 71,4% -3,8°C 1028,8hPa 0,8°C 7,2km/h (2Bft) 3,6km/h 31° (NO) 0,0l/m² 7,974klx 0,0min
14:45 0,9°C 71,2% -3,7°C 1028,8hPa 0,9°C 6,8km/h (2Bft) 3,2km/h 22° (N) 0,0l/m² 8,086klx 0,0min
14:40 1,1°C 70,7% -3,6°C 1028,7hPa 1,1°C 7,2km/h (2Bft) 3,2km/h 24° (NO) 0,0l/m² 9,298klx 0,0min
14:35 1,1°C 71,7% -3,5°C 1028,6hPa 1,1°C 10,1km/h (2Bft) 4,2km/h 11° (N) 0,0l/m² 11,378klx 0,0min
14:30 1,1°C 70,7% -3,6°C 1028,6hPa 1,1°C 11,2km/h (2Bft) 5,3km/h 26° (NO) 0,0l/m² 8,743klx 0,0min
14:25 1,4°C 69,1% -3,6°C 1028,7hPa -0,2°C 13,0km/h (3Bft) 8,1km/h 8° (N) 0,0l/m² 10,760klx 0,0min
14:20 2,0°C 68,1% -3,3°C 1028,7hPa 1,6°C 12,2km/h (3Bft) 6,8km/h 13° (N) 0,0l/m² 11,828klx 0,0min
14:15 2,1°C 67,9% -3,3°C 1028,4hPa 2,1°C 13,0km/h (3Bft) 4,9km/h 152° (SO) 0,0l/m² 24,172klx 0,0min
14:10 2,0°C 67,7% -3,4°C 1028,3hPa 2,0°C 9,4km/h (2Bft) 4,0km/h 117° (SO) 0,0l/m² 24,700klx 0,0min
14:05 1,7°C 68,7% -3,5°C 1028,2hPa 1,7°C 7,6km/h (2Bft) 3,8km/h 149° (SO) 0,0l/m² 22,506klx 0,0min
14:00 1,1°C 70,1% -3,7°C 1028,4hPa 1,1°C 9,4km/h (2Bft) 5,6km/h 129° (SO) 0,0l/m² 18,701klx 0,0min
13:55 1,1°C 70,2% -3,7°C 1028,6hPa 1,1°C 9,4km/h (2Bft) 4,6km/h 121° (SO) 0,0l/m² 11,707klx 0,0min
13:50 1,3°C 70,1% -3,6°C 1028,8hPa 1,3°C 8,6km/h (2Bft) 3,5km/h 71° (O) 0,0l/m² 12,513klx 0,0min
13:45 1,3°C 70,5% -3,5°C 1028,9hPa 1,3°C 11,2km/h (2Bft) 5,3km/h 28° (NO) 0,0l/m² 12,895klx 0,0min
13:40 1,3°C 70,8% -3,4°C 1029,1hPa 1,3°C 8,6km/h (2Bft) 5,0km/h 21° (N) 0,0l/m² 13,352klx 0,0min
13:35 1,3°C 71,4% -3,4°C 1029,1hPa 1,3°C 6,8km/h (2Bft) 3,4km/h 353° (N) 0,0l/m² 13,405klx 0,0min
13:30 1,0°C 71,0% -3,6°C 1029,2hPa 1,0°C 4,7km/h (1Bft) 2,4km/h 359° (N) 0,0l/m² 13,319klx 0,0min
13:25 1,1°C 70,6% -3,7°C 1029,3hPa 1,1°C 8,3km/h (2Bft) 4,5km/h 10° (N) 0,0l/m² 12,070klx 0,0min
13:20 1,1°C 72,2% -3,3°C 1029,5hPa 1,1°C 10,8km/h (2Bft) 6,4km/h 24° (NO) 0,0l/m² 9,379klx 0,0min
13:15 1,0°C 71,7% -3,5°C 1029,7hPa 1,0°C 12,6km/h (3Bft) 5,3km/h 21° (N) 0,0l/m² 7,921klx 0,0min
13:10 1,0°C 71,7% -3,6°C 1029,6hPa 1,0°C 13,3km/h (3Bft) 5,9km/h 7° (N) 0,0l/m² 8,614klx 0,0min
13:05 1,1°C 71,8% -3,4°C 1029,7hPa -1,3°C 16,6km/h (3Bft) 8,9km/h 11° (N) 0,0l/m² 8,183klx 0,0min
13:00 1,1°C 72,3% -3,4°C 1029,6hPa 1,1°C 11,9km/h (2Bft) 5,6km/h 353° (N) 0,0l/m² 9,128klx 0,0min
12:55 1,0°C 71,8% -3,5°C 1029,7hPa 1,0°C 10,1km/h (2Bft) 5,8km/h 18° (N) 0,0l/m² 9,698klx 0,0min
12:50 1,0°C 71,9% -3,5°C 1029,7hPa 0,1°C 14,4km/h (3Bft) 7,3km/h 26° (NO) 0,0l/m² 8,370klx 0,0min
12:45 1,0°C 72,0% -3,5°C 1029,7hPa 1,0°C 10,1km/h (2Bft) 5,1km/h 24° (NO) 0,0l/m² 8,221klx 0,0min
12:40 1,0°C 71,1% -3,6°C 1029,8hPa 1,0°C 9,4km/h (2Bft) 5,0km/h 33° (NO) 0,0l/m² 9,286klx 0,0min
12:35 1,1°C 71,2% -3,5°C 1029,9hPa 1,1°C 12,6km/h (3Bft) 6,1km/h 22° (N) 0,0l/m² 8,537klx 0,0min
12:30 1,1°C 72,7% -3,3°C 1030,0hPa 0,9°C 13,3km/h (3Bft) 6,6km/h 354° (N) 0,0l/m² 7,716klx 0,0min
12:25 1,1°C 72,7% -3,2°C 1030,0hPa 0,0°C 18,4km/h (3Bft) 7,6km/h 6° (N) 0,0l/m² 6,915klx 0,0min
12:20 1,1°C 72,5% -3,3°C 1029,9hPa 1,1°C 11,5km/h (2Bft) 5,0km/h 26° (NO) 0,0l/m² 7,678klx 0,0min
12:15 1,1°C 71,7% -3,5°C 1029,9hPa 1,1°C 12,6km/h (3Bft) 4,9km/h 2° (N) 0,0l/m² 8,290klx 0,0min
12:10 1,2°C 72,3% -3,3°C 1029,8hPa 1,2°C 10,1km/h (2Bft) 5,4km/h 5° (N) 0,0l/m² 9,769klx 0,0min
12:05 1,2°C 72,2% -3,3°C 1029,8hPa 0,8°C 14,4km/h (3Bft) 6,8km/h 15° (N) 0,0l/m² 10,314klx 0,0min
12:00 1,2°C 72,0% -3,3°C 1029,8hPa -1,9°C 21,2km/h (4Bft) 9,8km/h 16° (N) 0,0l/m² 8,955klx 0,0min
11:55 1,2°C 72,1% -3,3°C 1029,6hPa 1,2°C 10,1km/h (2Bft) 5,7km/h 7° (N) 0,0l/m² 10,469klx 0,0min
11:50 1,1°C 72,4% -3,3°C 1029,5hPa 1,1°C 11,9km/h (2Bft) 5,3km/h 2° (N) 0,0l/m² 10,696klx 0,0min
11:45 1,1°C 72,2% -3,3°C 1029,5hPa 1,1°C 11,2km/h (2Bft) 5,0km/h 325° (NW) 0,0l/m² 11,208klx 0,0min
11:40 1,2°C 72,6% -3,2°C 1029,4hPa 0,8°C 15,5km/h (3Bft) 6,8km/h 351° (N) 0,0l/m² 10,803klx 0,0min
11:35 1,1°C 73,2% -3,2°C 1029,5hPa 1,1°C 13,3km/h (3Bft) 5,7km/h 334° (NW) 0,0l/m² 11,005klx 0,0min
11:30 1,0°C 72,2% -3,5°C 1029,6hPa 1,0°C 9,7km/h (2Bft) 5,5km/h 325° (NW) 0,0l/m² 10,276klx 0,0min
11:25 1,1°C 72,9% -3,2°C 1029,8hPa 1,1°C 11,5km/h (2Bft) 5,9km/h 340° (N) 0,0l/m² 9,496klx 0,0min
11:20 1,0°C 72,8% -3,3°C 1029,8hPa 0,8°C 13,0km/h (3Bft) 6,6km/h 24° (NO) 0,0l/m² 8,731klx 0,0min
11:15 1,1°C 72,6% -3,3°C 1029,8hPa -0,2°C 12,6km/h (3Bft) 7,7km/h 30° (NO) 0,0l/m² 8,473klx 0,0min
11:10 1,0°C 73,2% -3,2°C 1029,8hPa 1,0°C 12,6km/h (3Bft) 5,7km/h 24° (NO) 0,0l/m² 7,907klx 0,0min
11:05 1,0°C 73,2% -3,3°C 1029,7hPa 1,0°C 11,9km/h (2Bft) 4,6km/h 351° (N) 0,0l/m² 7,460klx 0,0min
11:00 1,1°C 73,6% -3,1°C 1029,8hPa 1,1°C 13,3km/h (3Bft) 6,1km/h 360° (N) 0,0l/m² 6,663klx 0,0min
10:55 1,0°C 74,2% -3,0°C 1029,9hPa 1,0°C 13,0km/h (3Bft) 5,9km/h 15° (N) 0,0l/m² 5,821klx 0,0min
10:50 1,0°C 74,2% -3,1°C 1029,8hPa 1,0°C 8,3km/h (2Bft) 4,1km/h 348° (N) 0,0l/m² 5,401klx 0,0min
10:45 0,9°C 73,7% -3,2°C 1029,7hPa 0,9°C 8,3km/h (2Bft) 4,1km/h 11° (N) 0,0l/m² 6,182klx 0,0min
10:40 0,9°C 72,3% -3,5°C 1029,7hPa 0,9°C 14,0km/h (3Bft) 5,4km/h 50° (NO) 0,0l/m² 6,796klx 0,0min
10:35 0,9°C 73,5% -3,3°C 1029,6hPa 0,9°C 9,7km/h (2Bft) 3,5km/h 51° (NO) 0,0l/m² 6,091klx 0,0min
10:30 0,8°C 73,0% -3,5°C 1029,6hPa 0,8°C 8,6km/h (2Bft) 4,7km/h 24° (NO) 0,0l/m² 5,447klx 0,0min
10:25 0,8°C 73,2% -3,5°C 1029,6hPa 0,8°C 9,4km/h (2Bft) 4,4km/h 25° (NO) 0,0l/m² 5,639klx 0,0min
10:20 0,8°C 73,5% -3,5°C 1029,6hPa 0,8°C 10,8km/h (2Bft) 6,2km/h 23° (NO) 0,0l/m² 5,258klx 0,0min
10:15 0,8°C 73,5% -3,4°C 1029,5hPa 0,8°C 11,2km/h (2Bft) 6,0km/h 346° (N) 0,0l/m² 4,657klx 0,0min
10:10 0,8°C 74,2% -3,3°C 1029,5hPa 0,8°C 11,2km/h (2Bft) 5,4km/h 3° (N) 0,0l/m² 4,317klx 0,0min
10:05 0,7°C 73,6% -3,5°C 1029,4hPa 0,7°C 10,1km/h (2Bft) 4,8km/h 18° (N) 0,0l/m² 3,734klx 0,0min
10:00 0,7°C 73,3% -3,5°C 1029,3hPa 0,7°C 9,4km/h (2Bft) 4,9km/h 20° (N) 0,0l/m² 4,905klx 0,0min
09:55 0,7°C 73,5% -3,5°C 1029,2hPa 0,7°C 8,6km/h (2Bft) 4,4km/h 14° (N) 0,0l/m² 4,784klx 0,0min
09:50 0,7°C 73,4% -3,5°C 1029,1hPa 0,2°C 11,9km/h (2Bft) 6,9km/h 23° (NO) 0,0l/m² 4,387klx 0,0min
09:45 0,7°C 73,7% -3,5°C 1029,0hPa 0,7°C 12,2km/h (3Bft) 5,6km/h 345° (N) 0,0l/m² 4,312klx 0,0min
09:40 0,7°C 73,8% -3,5°C 1028,9hPa 0,7°C 10,8km/h (2Bft) 4,4km/h 324° (NW) 0,0l/m² 4,330klx 0,0min
09:35 0,7°C 74,7% -3,3°C 1028,8hPa 0,7°C 11,5km/h (2Bft) 5,7km/h 330° (NW) 0,0l/m² 4,022klx 0,0min
09:30 0,7°C 75,0% -3,3°C 1028,8hPa 0,7°C 6,8km/h (2Bft) 3,9km/h 352° (N) 0,0l/m² 3,466klx 0,0min
09:25 0,6°C 74,4% -3,4°C 1028,8hPa 0,6°C 9,0km/h (2Bft) 4,3km/h 10° (N) 0,0l/m² 2,926klx 0,0min
09:20 0,6°C 75,2% -3,3°C 1028,8hPa 0,6°C 8,3km/h (2Bft) 4,2km/h 349° (N) 0,0l/m² 2,839klx 0,0min
09:15 0,6°C 74,8% -3,4°C 1028,7hPa -0,3°C 12,2km/h (3Bft) 7,2km/h 30° (NO) 0,0l/m² 2,659klx 0,0min
09:10 0,5°C 75,4% -3,3°C 1028,6hPa 0,5°C 10,1km/h (2Bft) 5,4km/h 31° (NO) 0,0l/m² 2,471klx 0,0min
09:05 0,5°C 75,6% -3,3°C 1028,5hPa 0,5°C 10,4km/h (2Bft) 5,1km/h 15° (N) 0,0l/m² 2,463klx 0,0min
09:00 0,5°C 75,7% -3,3°C 1028,4hPa 0,5°C 7,6km/h (2Bft) 4,0km/h 20° (N) 0,0l/m² 2,075klx 0,0min
08:55 0,5°C 75,4% -3,3°C 1028,3hPa 0,0°C 11,5km/h (2Bft) 6,9km/h 27° (NO) 0,0l/m² 1,358klx 0,0min
08:50 0,5°C 74,8% -3,4°C 1028,4hPa 0,5°C 7,2km/h (2Bft) 4,0km/h 17° (N) 0,0l/m² 1,315klx 0,0min
08:45 0,5°C 75,8% -3,3°C 1028,4hPa 0,5°C 10,1km/h (2Bft) 5,8km/h 16° (N) 0,0l/m² 0,970klx 0,0min
08:40 0,6°C 76,5% -3,1°C 1028,3hPa 0,6°C 5,0km/h (1Bft) 2,8km/h 11° (N) 0,0l/m² 0,792klx 0,0min
08:35 0,6°C 76,3% -3,1°C 1028,3hPa 0,6°C 8,3km/h (2Bft) 4,0km/h 25° (NO) 0,0l/m² 0,650klx 0,0min
08:30 0,6°C 76,0% -3,2°C 1028,2hPa 0,6°C 7,2km/h (2Bft) 4,2km/h 25° (NO) 0,0l/m² 0,552klx 0,0min
08:25 0,6°C 76,7% -3,1°C 1028,3hPa 0,6°C 7,6km/h (2Bft) 5,2km/h 13° (N) 0,0l/m² 0,405klx 0,0min
08:20 0,5°C 76,7% -3,1°C 1028,3hPa 0,5°C 6,8km/h (2Bft) 4,3km/h 19° (N) 0,0l/m² 0,274klx 0,0min
08:15 0,5°C 76,1% -3,2°C 1028,2hPa 0,5°C 6,1km/h (2Bft) 3,9km/h 16° (N) 0,0l/m² 0,198klx 0,0min
08:10 0,6°C 75,4% -3,3°C 1028,1hPa 0,6°C 6,1km/h (2Bft) 3,2km/h 34° (NO) 0,0l/m² 0,138klx 0,0min
08:05 0,6°C 75,5% -3,3°C 1028,2hPa 0,6°C 7,9km/h (2Bft) 3,6km/h 19° (N) 0,0l/m² 0,080klx 0,0min
08:00 0,6°C 75,0% -3,3°C 1028,2hPa 0,6°C 9,0km/h (2Bft) 4,0km/h 10° (N) 0,0l/m² 0,041klx 0,0min
07:55 0,6°C 74,9% -3,3°C 1028,3hPa 0,6°C 9,4km/h (2Bft) 5,4km/h 15° (N) 0,0l/m² 0,018klx 0,0min
07:50 0,7°C 75,0% -3,3°C 1028,3hPa 0,7°C 10,1km/h (2Bft) 5,0km/h 15° (N) 0,0l/m² 0,007klx 0,0min
07:45 0,7°C 75,4% -3,2°C 1028,3hPa 0,7°C 12,6km/h (3Bft) 5,6km/h 20° (N) 0,0l/m² 0,003klx 0,0min
07:40 0,7°C 75,7% -3,1°C 1028,2hPa 0,7°C 10,8km/h (2Bft) 4,4km/h 19° (N) 0,0l/m² 0,001klx 0,0min
07:35 0,7°C 75,7% -3,1°C 1028,2hPa 0,7°C 6,5km/h (2Bft) 2,5km/h 24° (NO) 0,0l/m² 0,001klx 0,0min
07:30 0,7°C 74,7% -3,3°C 1028,2hPa 0,7°C 11,5km/h (2Bft) 3,9km/h 49° (NO) 0,0l/m² 0,001klx 0,0min
07:25 0,7°C 75,0% -3,2°C 1028,3hPa 0,7°C 6,1km/h (2Bft) 2,4km/h 42° (NO) 0,0l/m² 0,001klx 0,0min
07:20 0,7°C 74,3% -3,3°C 1028,2hPa 0,7°C 9,7km/h (2Bft) 4,2km/h 38° (NO) 0,0l/m² 0,000klx 0,0min
07:15 0,7°C 74,3% -3,3°C 1028,3hPa 0,3°C 13,0km/h (3Bft) 6,8km/h 28° (NO) 0,0l/m² 0,000klx 0,0min
07:10 0,8°C 74,4% -3,3°C 1028,3hPa -0,9°C 17,6km/h (3Bft) 8,1km/h 19° (N) 0,0l/m² 0,000klx 0,0min
07:05 0,8°C 74,9% -3,2°C 1028,3hPa 0,5°C 15,1km/h (3Bft) 6,7km/h 28° (NO) 0,0l/m² 0,000klx 0,0min
07:00 0,8°C 75,3% -3,1°C 1028,2hPa 0,8°C 14,0km/h (3Bft) 4,7km/h 48° (NO) 0,0l/m² 0,000klx 0,0min
06:55 0,8°C 74,8% -3,2°C 1028,1hPa 0,8°C 8,6km/h (2Bft) 4,0km/h 21° (N) 0,0l/m² 0,000klx 0,0min
06:50 0,8°C 74,1% -3,3°C 1028,0hPa 0,8°C 6,5km/h (2Bft) 3,8km/h 30° (NO) 0,0l/m² 0,000klx 0,0min
06:45 0,9°C 75,1% -3,1°C 1028,0hPa 0,9°C 12,6km/h (3Bft) 6,2km/h 30° (NO) 0,0l/m² 0,000klx 0,0min
06:40 0,9°C 75,8% -2,9°C 1028,0hPa -0,4°C 13,0km/h (3Bft) 7,7km/h 26° (NO) 0,0l/m² 0,000klx 0,0min
06:35 0,9°C 75,9% -2,9°C 1027,9hPa 0,9°C 8,3km/h (2Bft) 3,8km/h 1° (N) 0,0l/m² 0,000klx 0,0min
06:30 0,9°C 75,6% -2,9°C 1027,8hPa 0,9°C 9,0km/h (2Bft) 3,9km/h 55° (NO) 0,0l/m² 0,000klx 0,0min
06:25 0,9°C 76,3% -2,8°C 1027,8hPa 0,9°C 9,7km/h (2Bft) 2,7km/h 26° (NO) 0,0l/m² 0,000klx 0,0min
06:20 0,9°C 75,5% -2,9°C 1027,9hPa 0,9°C 5,0km/h (1Bft) 2,5km/h 30° (NO) 0,0l/m² 0,000klx 0,0min
06:15 0,9°C 75,7% -2,9°C 1027,9hPa 0,9°C 5,0km/h (1Bft) 2,5km/h 7° (N) 0,0l/m² 0,000klx 0,0min
06:10 1,0°C 75,2% -2,9°C 1027,9hPa 1,0°C 6,1km/h (2Bft) 2,6km/h 31° (NO) 0,0l/m² 0,000klx 0,0min
06:05 1,0°C 75,0% -2,9°C 1027,9hPa 1,0°C 9,0km/h (2Bft) 5,2km/h 25° (NO) 0,0l/m² 0,000klx 0,0min
06:00 1,0°C 75,3% -2,9°C 1027,9hPa 0,8°C 15,8km/h (3Bft) 6,6km/h 23° (NO) 0,0l/m² 0,000klx 0,0min
05:55 1,0°C 75,0% -2,9°C 1028,0hPa 0,8°C 14,0km/h (3Bft) 6,7km/h 23° (NO) 0,0l/m² 0,000klx 0,0min
05:50 1,0°C 75,3% -2,8°C 1028,0hPa 0,1°C 14,0km/h (3Bft) 7,4km/h 20° (N) 0,0l/m² 0,000klx 0,0min
05:45 1,1°C 76,5% -2,6°C 1028,0hPa 0,0°C 16,9km/h (3Bft) 7,5km/h 18° (N) 0,0l/m² 0,000klx 0,0min
05:40 1,1°C 76,6% -2,6°C 1028,0hPa 1,1°C 9,0km/h (2Bft) 4,7km/h 358° (N) 0,0l/m² 0,000klx 0,0min
05:35 1,1°C 77,0% -2,5°C 1027,9hPa -0,8°C 13,3km/h (3Bft) 8,3km/h 31° (NO) 0,0l/m² 0,000klx 0,0min
05:30 1,1°C 77,6% -2,4°C 1027,9hPa 0,1°C 16,6km/h (3Bft) 7,4km/h 24° (NO) 0,0l/m² 0,000klx 0,0min
05:25 1,1°C 78,5% -2,2°C 1027,9hPa 1,1°C 10,8km/h (2Bft) 4,9km/h 24° (NO) 0,0l/m² 0,000klx 0,0min
05:20 1,1°C 78,2% -2,3°C 1027,9hPa 1,1°C 10,1km/h (2Bft) 6,2km/h 13° (N) 0,0l/m² 0,000klx 0,0min
05:15 1,1°C 78,1% -2,3°C 1027,8hPa 0,3°C 10,8km/h (2Bft) 7,2km/h 22° (N) 0,0l/m² 0,000klx 0,0min
05:10 1,1°C 77,9% -2,3°C 1027,7hPa 0,8°C 11,5km/h (2Bft) 6,8km/h 22° (N) 0,0l/m² 0,000klx 0,0min
05:05 1,1°C 77,6% -2,4°C 1027,7hPa 1,1°C 10,8km/h (2Bft) 6,4km/h 22° (N) 0,0l/m² 0,000klx 0,0min
05:00 1,1°C 78,2% -2,3°C 1027,7hPa 1,1°C 9,4km/h (2Bft) 5,7km/h 15° (N) 0,0l/m² 0,000klx 0,0min
04:55 1,1°C 78,6% -2,2°C 1027,7hPa 1,1°C 10,1km/h (2Bft) 5,8km/h 11° (N) 0,0l/m² 0,000klx 0,0min
04:50 1,1°C 79,0% -2,2°C 1027,6hPa 1,1°C 10,8km/h (2Bft) 6,2km/h 27° (NO) 0,0l/m² 0,000klx 0,0min
04:45 1,1°C 79,3% -2,1°C 1027,6hPa 1,1°C 6,1km/h (2Bft) 3,4km/h 1° (N) 0,0l/m² 0,000klx 0,0min
04:40 1,1°C 78,9% -2,1°C 1027,6hPa 1,1°C 11,2km/h (2Bft) 6,1km/h 29° (NO) 0,0l/m² 0,000klx 0,0min
04:35 1,2°C 79,2% -2,1°C 1027,6hPa 0,7°C 12,2km/h (3Bft) 6,9km/h 22° (N) 0,0l/m² 0,000klx 0,0min
04:30 1,2°C 79,0% -2,1°C 1027,6hPa 1,2°C 8,3km/h (2Bft) 5,1km/h 18° (N) 0,0l/m² 0,000klx 0,0min
04:25 1,2°C 79,0% -2,1°C 1027,7hPa 1,2°C 12,2km/h (3Bft) 6,4km/h 23° (NO) 0,0l/m² 0,000klx 0,0min
04:20 1,2°C 80,0% -1,9°C 1027,7hPa 1,2°C 9,7km/h (2Bft) 5,2km/h 18° (N) 0,0l/m² 0,000klx 0,0min
04:15 1,2°C 79,6% -1,9°C 1027,7hPa 1,2°C 9,4km/h (2Bft) 4,5km/h 1° (N) 0,0l/m² 0,000klx 0,0min
04:10 1,2°C 79,7% -1,9°C 1027,7hPa 1,2°C 10,8km/h (2Bft) 5,6km/h 354° (N) 0,0l/m² 0,000klx 0,0min
04:05 1,3°C 79,5% -1,9°C 1027,8hPa 1,3°C 13,3km/h (3Bft) 6,2km/h 360° (N) 0,0l/m² 0,000klx 0,0min
04:00 1,3°C 80,7% -1,7°C 1027,7hPa 0,4°C 14,4km/h (3Bft) 7,3km/h 344° (N) 0,0l/m² 0,000klx 0,0min
03:55 1,3°C 80,6% -1,6°C 1027,7hPa 1,3°C 11,9km/h (2Bft) 5,5km/h 17° (N) 0,0l/m² 0,000klx 0,0min
03:50 1,4°C 80,9% -1,6°C 1027,7hPa 1,4°C 11,2km/h (2Bft) 4,4km/h 6° (N) 0,0l/m² 0,000klx 0,0min
03:45 1,4°C 80,9% -1,5°C 1027,6hPa 1,4°C 8,6km/h (2Bft) 4,4km/h 8° (N) 0,0l/m² 0,000klx 0,0min
03:40 1,4°C 81,2% -1,4°C 1027,6hPa 1,4°C 12,2km/h (3Bft) 6,1km/h 6° (N) 0,0l/m² 0,000klx 0,0min
03:35 1,4°C 81,5% -1,4°C 1027,6hPa 1,4°C 11,9km/h (2Bft) 4,9km/h 357° (N) 0,0l/m² 0,000klx 0,0min
03:30 1,5°C 81,2% -1,4°C 1027,6hPa 0,2°C 14,4km/h (3Bft) 7,7km/h 24° (NO) 0,0l/m² 0,000klx 0,0min
03:25 1,5°C 81,7% -1,3°C 1027,6hPa -1,1°C 14,8km/h (3Bft) 9,2km/h 25° (NO) 0,0l/m² 0,000klx 0,0min
03:20 1,5°C 82,3% -1,2°C 1027,6hPa 1,5°C 11,2km/h (2Bft) 6,1km/h 9° (N) 0,0l/m² 0,000klx 0,0min
03:15 1,5°C 82,0% -1,2°C 1027,5hPa 0,0°C 13,3km/h (3Bft) 8,0km/h 18° (N) 0,0l/m² 0,000klx 0,0min
03:10 1,6°C 82,8% -1,1°C 1027,5hPa 1,6°C 15,5km/h (3Bft) 5,9km/h 15° (N) 0,0l/m² 0,000klx 0,0min
03:05 1,6°C 82,2% -1,1°C 1027,5hPa 0,5°C 13,7km/h (3Bft) 7,5km/h 21° (N) 0,0l/m² 0,000klx 0,0min
03:00 1,6°C 82,4% -1,1°C 1027,5hPa -0,6°C 14,4km/h (3Bft) 8,7km/h 25° (NO) 0,0l/m² 0,000klx 0,0min
02:55 1,6°C 82,5% -1,0°C 1027,4hPa 1,6°C 7,2km/h (2Bft) 3,6km/h 21° (N) 0,0l/m² 0,000klx 0,0min
02:50 1,7°C 82,4% -1,0°C 1027,5hPa 1,7°C 6,8km/h (2Bft) 3,2km/h 12° (N) 0,0l/m² 0,000klx 0,0min
02:45 1,7°C 82,3% -1,0°C 1027,4hPa 1,7°C 8,3km/h (2Bft) 4,0km/h 31° (NO) 0,0l/m² 0,000klx 0,0min
02:40 1,7°C 81,7% -1,1°C 1027,3hPa 1,7°C 6,1km/h (2Bft) 3,2km/h 57° (NO) 0,0l/m² 0,000klx 0,0min
02:35 1,7°C 81,1% -1,2°C 1027,3hPa 1,7°C 6,5km/h (2Bft) 3,2km/h 97° (O) 0,0l/m² 0,000klx 0,0min
02:30 1,7°C 81,1% -1,2°C 1027,3hPa 1,7°C 11,2km/h (2Bft) 3,6km/h 48° (NO) 0,0l/m² 0,000klx 0,0min
02:25 1,7°C 81,0% -1,2°C 1027,3hPa 1,7°C 9,4km/h (2Bft) 3,8km/h 46° (NO) 0,0l/m² 0,000klx 0,0min
02:20 1,7°C 81,6% -1,1°C 1027,4hPa 1,7°C 7,9km/h (2Bft) 4,0km/h 45° (NO) 0,0l/m² 0,000klx 0,0min
02:15 1,7°C 81,4% -1,1°C 1027,3hPa 1,7°C 8,6km/h (2Bft) 4,0km/h 33° (NO) 0,0l/m² 0,000klx 0,0min
02:10 1,7°C 81,7% -1,1°C 1027,4hPa 1,7°C 11,5km/h (2Bft) 3,9km/h 19° (N) 0,0l/m² 0,000klx 0,0min
02:05 1,8°C 81,5% -1,1°C 1027,4hPa 1,8°C 9,0km/h (2Bft) 3,9km/h 19° (N) 0,0l/m² 0,000klx 0,0min
02:00 1,8°C 81,3% -1,1°C 1027,4hPa 1,8°C 10,1km/h (2Bft) 5,5km/h 7° (N) 0,0l/m² 0,000klx 0,0min
01:55 1,8°C 81,8% -1,0°C 1027,3hPa 1,6°C 12,6km/h (3Bft) 6,7km/h 26° (NO) 0,0l/m² 0,000klx 0,0min
01:50 1,9°C 82,1% -0,9°C 1027,4hPa 1,9°C 9,7km/h (2Bft) 3,9km/h 18° (N) 0,0l/m² 0,000klx 0,0min
01:45 1,9°C 81,7% -0,9°C 1027,3hPa 1,9°C 8,3km/h (2Bft) 3,5km/h 11° (N) 0,0l/m² 0,000klx 0,0min
01:40 1,9°C 81,9% -0,9°C 1027,3hPa 1,9°C 8,6km/h (2Bft) 4,2km/h 18° (N) 0,0l/m² 0,000klx 0,0min
01:35 1,9°C 81,9% -0,9°C 1027,3hPa 1,9°C 6,8km/h (2Bft) 3,4km/h 24° (NO) 0,0l/m² 0,000klx 0,0min
01:30 1,9°C 82,2% -0,8°C 1027,2hPa 1,9°C 4,7km/h (1Bft) 2,5km/h 350° (N) 0,0l/m² 0,000klx 0,0min
01:25 2,0°C 82,3% -0,7°C 1027,2hPa 2,0°C 7,6km/h (2Bft) 3,0km/h 11° (N) 0,0l/m² 0,000klx 0,0min
01:20 2,0°C 81,9% -0,8°C 1027,2hPa 2,0°C 11,2km/h (2Bft) 4,6km/h 38° (NO) 0,0l/m² 0,000klx 0,0min
01:15 2,0°C 81,8% -0,8°C 1027,2hPa 2,0°C 9,4km/h (2Bft) 4,0km/h 78° (O) 0,0l/m² 0,000klx 0,0min
01:10 2,0°C 81,9% -0,8°C 1027,3hPa 2,0°C 7,2km/h (2Bft) 3,8km/h 21° (N) 0,0l/m² 0,000klx 0,0min
01:05 2,0°C 82,0% -0,7°C 1027,3hPa 2,0°C 15,5km/h (3Bft) 5,2km/h 24° (NO) 0,0l/m² 0,000klx 0,0min
01:00 2,0°C 82,2% -0,7°C 1027,4hPa 2,0°C 10,8km/h (2Bft) 4,3km/h 21° (N) 0,0l/m² 0,000klx 0,0min
00:55 2,0°C 82,2% -0,7°C 1027,4hPa 2,0°C 8,6km/h (2Bft) 3,3km/h 17° (N) 0,0l/m² 0,000klx 0,0min
00:50 2,1°C 82,5% -0,6°C 1027,4hPa 2,1°C 13,7km/h (3Bft) 4,9km/h 9° (N) 0,0l/m² 0,000klx 0,0min
00:45 2,1°C 83,1% -0,5°C 1027,4hPa 2,1°C 8,6km/h (2Bft) 4,1km/h 8° (N) 0,0l/m² 0,000klx 0,0min
00:40 2,1°C 82,6% -0,5°C 1027,3hPa 2,1°C 9,7km/h (2Bft) 3,8km/h 1° (N) 0,0l/m² 0,000klx 0,0min
00:35 2,2°C 82,1% -0,6°C 1027,3hPa 2,2°C 11,5km/h (2Bft) 5,7km/h 28° (NO) 0,0l/m² 0,000klx 0,0min
00:30 2,2°C 82,6% -0,4°C 1027,3hPa 2,2°C 13,3km/h (3Bft) 5,7km/h 12° (N) 0,0l/m² 0,000klx 0,0min
00:25 2,3°C 82,8% -0,4°C 1027,3hPa 2,3°C 12,2km/h (3Bft) 4,9km/h 20° (N) 0,0l/m² 0,000klx 0,0min
00:20 2,4°C 82,5% -0,3°C 1027,3hPa 2,4°C 11,5km/h (2Bft) 5,3km/h 13° (N) 0,0l/m² 0,000klx 0,0min
00:15 2,4°C 82,4% -0,3°C 1027,2hPa 2,4°C 10,1km/h (2Bft) 4,0km/h 33° (NO) 0,0l/m² 0,000klx 0,0min
00:10 2,4°C 81,8% -0,4°C 1027,2hPa 2,4°C 8,3km/h (2Bft) 3,1km/h 39° (NO) 0,0l/m² 0,000klx 0,0min
00:05 2,5°C 81,5% -0,4°C 1027,1hPa 2,3°C 20,5km/h (4Bft) 6,6km/h 42° (NO) 0,0l/m² 0,000klx 0,0min
00:00 2,5°C 82,0% -0,3°C 1027,1hPa 2,5°C 18,4km/h (3Bft) 5,2km/h 50° (NO) 0,0l/m² 0,000klx 0,0min

Aktuelle Wetterdaten

28.01.2023 21:10 Uhr